sensor_id;sensor_type;location;lat;lon;timestamp;pressure;altitude;pressure_sealevel;temperature
70533;BMP180;58088;51.186;17.130;2022-07-09T00:00:18;101038.60;;;17.60
70533;BMP180;58088;51.186;17.130;2022-07-09T00:02:44;101043.20;;;17.60
70533;BMP180;58088;51.186;17.130;2022-07-09T00:05:10;101045.80;;;17.60
70533;BMP180;58088;51.186;17.130;2022-07-09T00:07:40;101049.00;;;17.70
70533;BMP180;58088;51.186;17.130;2022-07-09T00:10:07;101055.80;;;17.62
70533;BMP180;58088;51.186;17.130;2022-07-09T00:12:33;101053.80;;;17.60
70533;BMP180;58088;51.186;17.130;2022-07-09T00:14:59;101052.40;;;17.60
70533;BMP180;58088;51.186;17.130;2022-07-09T00:17:25;101048.00;;;17.60
70533;BMP180;58088;51.186;17.130;2022-07-09T00:19:52;101050.00;;;17.60
70533;BMP180;58088;51.186;17.130;2022-07-09T00:22:18;101053.00;;;17.60
70533;BMP180;58088;51.186;17.130;2022-07-09T00:24:44;101048.80;;;17.60
70533;BMP180;58088;51.186;17.130;2022-07-09T00:27:10;101053.00;;;17.60
70533;BMP180;58088;51.186;17.130;2022-07-09T00:29:36;101051.40;;;17.54
70533;BMP180;58088;51.186;17.130;2022-07-09T00:32:03;101052.40;;;17.50
70533;BMP180;58088;51.186;17.130;2022-07-09T00:34:29;101048.80;;;17.50
70533;BMP180;58088;51.186;17.130;2022-07-09T00:36:55;101039.80;;;17.40
70533;BMP180;58088;51.186;17.130;2022-07-09T00:39:21;101044.00;;;17.40
70533;BMP180;58088;51.186;17.130;2022-07-09T00:41:47;101040.40;;;17.40
70533;BMP180;58088;51.186;17.130;2022-07-09T00:44:13;101041.80;;;17.40
70533;BMP180;58088;51.186;17.130;2022-07-09T00:46:40;101041.80;;;17.40
70533;BMP180;58088;51.186;17.130;2022-07-09T00:49:06;101042.40;;;17.34
70533;BMP180;58088;51.186;17.130;2022-07-09T00:51:32;101036.00;;;17.30
70533;BMP180;58088;51.186;17.130;2022-07-09T00:54:00;101042.40;;;17.30
70533;BMP180;58088;51.186;17.130;2022-07-09T00:56:28;101042.80;;;17.30
70533;BMP180;58088;51.186;17.130;2022-07-09T00:58:56;101043.40;;;17.30
70533;BMP180;58088;51.186;17.130;2022-07-09T01:01:22;101041.00;;;17.30
70533;BMP180;58088;51.186;17.130;2022-07-09T01:03:48;101031.60;;;17.30
70533;BMP180;58088;51.186;17.130;2022-07-09T01:06:14;101031.00;;;17.24
70533;BMP180;58088;51.186;17.130;2022-07-09T01:08:41;101024.40;;;17.20
70533;BMP180;58088;51.186;17.130;2022-07-09T01:11:11;101019.40;;;17.20
70533;BMP180;58088;51.186;17.130;2022-07-09T01:13:37;101014.80;;;17.20
70533;BMP180;58088;51.186;17.130;2022-07-09T01:16:10;101018.00;;;17.10
70533;BMP180;58088;51.186;17.130;2022-07-09T01:18:37;101016.60;;;17.10
70533;BMP180;58088;51.186;17.130;2022-07-09T01:21:04;101007.60;;;17.10
70533;BMP180;58088;51.186;17.130;2022-07-09T01:23:32;101008.60;;;17.00
70533;BMP180;58088;51.186;17.130;2022-07-09T01:25:59;101008.40;;;16.90
70533;BMP180;58088;51.186;17.130;2022-07-09T01:28:26;101004.40;;;16.90
70533;BMP180;58088;51.186;17.130;2022-07-09T01:30:52;101002.80;;;16.90
70533;BMP180;58088;51.186;17.130;2022-07-09T01:33:19;101002.20;;;16.90
70533;BMP180;58088;51.186;17.130;2022-07-09T01:35:45;100997.20;;;16.80
70533;BMP180;58088;51.186;17.130;2022-07-09T01:38:11;101001.20;;;16.70
70533;BMP180;58088;51.186;17.130;2022-07-09T01:40:37;101001.40;;;16.70
70533;BMP180;58088;51.186;17.130;2022-07-09T01:43:03;100996.00;;;16.64
70533;BMP180;58088;51.186;17.130;2022-07-09T01:45:29;100991.00;;;16.60
70533;BMP180;58088;51.186;17.130;2022-07-09T01:47:55;100994.00;;;16.60
70533;BMP180;58088;51.186;17.130;2022-07-09T01:50:21;100985.00;;;16.50
70533;BMP180;58088;51.186;17.130;2022-07-09T01:52:47;100992.60;;;16.50
70533;BMP180;58088;51.186;17.130;2022-07-09T01:55:14;100991.20;;;16.42
70533;BMP180;58088;51.186;17.130;2022-07-09T01:57:40;100982.60;;;16.40
70533;BMP180;58088;51.186;17.130;2022-07-09T02:00:07;100981.60;;;16.38
70533;BMP180;58088;51.186;17.130;2022-07-09T02:02:40;100975.80;;;16.30
70533;BMP180;58088;51.186;17.130;2022-07-09T02:05:07;100975.80;;;16.30
70533;BMP180;58088;51.186;17.130;2022-07-09T02:07:33;100977.60;;;16.20
70533;BMP180;58088;51.186;17.130;2022-07-09T02:09:59;100975.00;;;16.20
70533;BMP180;58088;51.186;17.130;2022-07-09T02:12:26;100968.40;;;16.20
70533;BMP180;58088;51.186;17.130;2022-07-09T02:14:52;100974.40;;;16.20
70533;BMP180;58088;51.186;17.130;2022-07-09T02:17:18;100974.80;;;16.20
70533;BMP180;58088;51.186;17.130;2022-07-09T02:19:44;100971.60;;;16.20
70533;BMP180;58088;51.186;17.130;2022-07-09T02:22:10;100966.60;;;16.20
70533;BMP180;58088;51.186;17.130;2022-07-09T02:24:36;100968.20;;;16.30
70533;BMP180;58088;51.186;17.130;2022-07-09T02:27:06;100966.60;;;16.30
70533;BMP180;58088;51.186;17.130;2022-07-09T02:29:33;100962.40;;;16.30
70533;BMP180;58088;51.186;17.130;2022-07-09T02:31:59;100971.40;;;16.30
70533;BMP180;58088;51.186;17.130;2022-07-09T02:34:25;100967.80;;;16.38
70533;BMP180;58088;51.186;17.130;2022-07-09T02:36:52;100959.40;;;16.40
70533;BMP180;58088;51.186;17.130;2022-07-09T02:39:18;100960.20;;;16.40
70533;BMP180;58088;51.186;17.130;2022-07-09T02:41:44;100960.00;;;16.50
70533;BMP180;58088;51.186;17.130;2022-07-09T02:44:10;100956.60;;;16.50
70533;BMP180;58088;51.186;17.130;2022-07-09T02:46:36;100954.00;;;16.58
70533;BMP180;58088;51.186;17.130;2022-07-09T02:49:03;100953.20;;;16.60
70533;BMP180;58088;51.186;17.130;2022-07-09T02:51:30;100953.40;;;16.60
70533;BMP180;58088;51.186;17.130;2022-07-09T02:53:56;100954.20;;;16.60
70533;BMP180;58088;51.186;17.130;2022-07-09T02:56:22;100955.40;;;16.70
70533;BMP180;58088;51.186;17.130;2022-07-09T02:58:48;100959.40;;;16.70
70533;BMP180;58088;51.186;17.130;2022-07-09T03:01:14;100956.60;;;16.70
70533;BMP180;58088;51.186;17.130;2022-07-09T03:03:40;100957.00;;;16.70
70533;BMP180;58088;51.186;17.130;2022-07-09T03:06:07;100954.40;;;16.70
70533;BMP180;58088;51.186;17.130;2022-07-09T03:08:34;100952.00;;;16.72
70533;BMP180;58088;51.186;17.130;2022-07-09T03:11:00;100951.00;;;16.74
70533;BMP180;58088;51.186;17.130;2022-07-09T03:13:26;100943.40;;;16.80
70533;BMP180;58088;51.186;17.130;2022-07-09T03:15:52;100943.60;;;16.80
70533;BMP180;58088;51.186;17.130;2022-07-09T03:18:18;100942.20;;;16.80
70533;BMP180;58088;51.186;17.130;2022-07-09T03:20:44;100939.00;;;16.80
70533;BMP180;58088;51.186;17.130;2022-07-09T03:23:10;100935.80;;;16.80
70533;BMP180;58088;51.186;17.130;2022-07-09T03:25:39;100938.20;;;16.82
70533;BMP180;58088;51.186;17.130;2022-07-09T03:28:05;100936.80;;;16.90
70533;BMP180;58088;51.186;17.130;2022-07-09T03:30:31;100935.40;;;16.90
70533;BMP180;58088;51.186;17.130;2022-07-09T03:32:57;100933.40;;;17.00
70533;BMP180;58088;51.186;17.130;2022-07-09T03:35:23;100928.40;;;17.26
70533;BMP180;58088;51.186;17.130;2022-07-09T03:37:50;100929.00;;;17.50
70533;BMP180;58088;51.186;17.130;2022-07-09T03:40:16;100932.20;;;17.74
70533;BMP180;58088;51.186;17.130;2022-07-09T03:42:42;100925.40;;;18.00
70533;BMP180;58088;51.186;17.130;2022-07-09T03:45:09;100929.40;;;18.30
70533;BMP180;58088;51.186;17.130;2022-07-09T03:47:35;100926.60;;;18.62
70533;BMP180;58088;51.186;17.130;2022-07-09T03:50:03;100926.20;;;19.10
70533;BMP180;58088;51.186;17.130;2022-07-09T03:52:29;100926.80;;;19.62
70533;BMP180;58088;51.186;17.130;2022-07-09T03:54:56;100928.00;;;20.16
70533;BMP180;58088;51.186;17.130;2022-07-09T03:57:22;100926.60;;;20.56
70533;BMP180;58088;51.186;17.130;2022-07-09T03:59:48;100929.00;;;20.92
70533;BMP180;58088;51.186;17.130;2022-07-09T04:02:14;100926.60;;;21.18
70533;BMP180;58088;51.186;17.130;2022-07-09T04:04:41;100929.80;;;21.22
70533;BMP180;58088;51.186;17.130;2022-07-09T04:07:10;100934.00;;;21.30
70533;BMP180;58088;51.186;17.130;2022-07-09T04:09:37;100930.60;;;21.48
70533;BMP180;58088;51.186;17.130;2022-07-09T04:12:03;100929.60;;;21.56
70533;BMP180;58088;51.186;17.130;2022-07-09T04:14:29;100931.20;;;21.70
70533;BMP180;58088;51.186;17.130;2022-07-09T04:16:56;100933.00;;;21.70
70533;BMP180;58088;51.186;17.130;2022-07-09T04:19:24;100926.80;;;21.70
70533;BMP180;58088;51.186;17.130;2022-07-09T04:21:50;100929.60;;;21.40
70533;BMP180;58088;51.186;17.130;2022-07-09T04:24:17;100926.80;;;21.30
70533;BMP180;58088;51.186;17.130;2022-07-09T04:26:44;100928.20;;;21.32
70533;BMP180;58088;51.186;17.130;2022-07-09T04:29:13;100922.60;;;20.92
70533;BMP180;58088;51.186;17.130;2022-07-09T04:31:42;100919.20;;;20.66
70533;BMP180;58088;51.186;17.130;2022-07-09T04:34:11;100916.80;;;20.60
70533;BMP180;58088;51.186;17.130;2022-07-09T04:36:40;100916.80;;;20.70
70533;BMP180;58088;51.186;17.130;2022-07-09T04:39:10;100918.00;;;20.90
70533;BMP180;58088;51.186;17.130;2022-07-09T04:41:40;100914.80;;;20.90
70533;BMP180;58088;51.186;17.130;2022-07-09T04:44:10;100921.80;;;20.70
70533;BMP180;58088;51.186;17.130;2022-07-09T04:46:43;100919.80;;;20.60
70533;BMP180;58088;51.186;17.130;2022-07-09T04:49:10;100921.20;;;20.30
70533;BMP180;58088;51.186;17.130;2022-07-09T04:51:36;100919.60;;;20.30
70533;BMP180;58088;51.186;17.130;2022-07-09T04:54:02;100922.40;;;20.40
70533;BMP180;58088;51.186;17.130;2022-07-09T04:56:29;100926.60;;;20.50
70533;BMP180;58088;51.186;17.130;2022-07-09T04:58:56;100926.00;;;20.60
70533;BMP180;58088;51.186;17.130;2022-07-09T05:01:25;100930.80;;;20.60
70533;BMP180;58088;51.186;17.130;2022-07-09T05:03:51;100924.40;;;20.54
70533;BMP180;58088;51.186;17.130;2022-07-09T05:06:19;100931.00;;;20.30
70533;BMP180;58088;51.186;17.130;2022-07-09T05:08:45;100928.40;;;20.12
70533;BMP180;58088;51.186;17.130;2022-07-09T05:11:11;100929.60;;;19.90
70533;BMP180;58088;51.186;17.130;2022-07-09T05:13:38;100930.40;;;19.70
70533;BMP180;58088;51.186;17.130;2022-07-09T05:16:07;100928.20;;;19.50
70533;BMP180;58088;51.186;17.130;2022-07-09T05:18:34;100927.20;;;19.52
70533;BMP180;58088;51.186;17.130;2022-07-09T05:21:00;100924.00;;;19.70
70533;BMP180;58088;51.186;17.130;2022-07-09T05:23:26;100923.60;;;19.94
70533;BMP180;58088;51.186;17.130;2022-07-09T05:25:53;100928.60;;;20.20
70533;BMP180;58088;51.186;17.130;2022-07-09T05:28:19;100928.20;;;20.60
70533;BMP180;58088;51.186;17.130;2022-07-09T05:30:46;100931.20;;;20.70
70533;BMP180;58088;51.186;17.130;2022-07-09T05:33:12;100933.40;;;20.78
70533;BMP180;58088;51.186;17.130;2022-07-09T05:35:38;100930.80;;;21.00
70533;BMP180;58088;51.186;17.130;2022-07-09T05:38:04;100931.40;;;21.32
70533;BMP180;58088;51.186;17.130;2022-07-09T05:40:31;100936.60;;;21.62
70533;BMP180;58088;51.186;17.130;2022-07-09T05:42:57;100932.80;;;22.04
70533;BMP180;58088;51.186;17.130;2022-07-09T05:45:23;100925.80;;;22.28
70533;BMP180;58088;51.186;17.130;2022-07-09T05:47:49;100928.20;;;22.08
70533;BMP180;58088;51.186;17.130;2022-07-09T05:50:15;100929.00;;;21.90
70533;BMP180;58088;51.186;17.130;2022-07-09T05:52:42;100924.20;;;21.66
70533;BMP180;58088;51.186;17.130;2022-07-09T05:55:09;100922.20;;;21.40
70533;BMP180;58088;51.186;17.130;2022-07-09T05:57:35;100917.20;;;21.20
70533;BMP180;58088;51.186;17.130;2022-07-09T06:00:02;100910.80;;;21.46
70533;BMP180;58088;51.186;17.130;2022-07-09T06:02:30;100904.80;;;22.02
70533;BMP180;58088;51.186;17.130;2022-07-09T06:04:57;100909.60;;;22.44
70533;BMP180;58088;51.186;17.130;2022-07-09T06:07:23;100898.20;;;23.00
70533;BMP180;58088;51.186;17.130;2022-07-09T06:09:49;100898.80;;;23.40
70533;BMP180;58088;51.186;17.130;2022-07-09T06:12:15;100902.60;;;23.74
70533;BMP180;58088;51.186;17.130;2022-07-09T06:14:41;100899.00;;;24.02
70533;BMP180;58088;51.186;17.130;2022-07-09T06:17:07;100897.00;;;24.30
70533;BMP180;58088;51.186;17.130;2022-07-09T06:19:35;100894.40;;;24.50
70533;BMP180;58088;51.186;17.130;2022-07-09T06:22:02;100889.40;;;24.80
70533;BMP180;58088;51.186;17.130;2022-07-09T06:24:29;100895.20;;;25.24
70533;BMP180;58088;51.186;17.130;2022-07-09T06:26:56;100897.00;;;25.70
70533;BMP180;58088;51.186;17.130;2022-07-09T06:29:22;100885.80;;;25.92
70533;BMP180;58088;51.186;17.130;2022-07-09T06:31:49;100891.60;;;26.30
70533;BMP180;58088;51.186;17.130;2022-07-09T06:34:15;100891.40;;;26.50
70533;BMP180;58088;51.186;17.130;2022-07-09T06:36:41;100889.40;;;26.42
70533;BMP180;58088;51.186;17.130;2022-07-09T06:39:11;100892.20;;;26.40
70533;BMP180;58088;51.186;17.130;2022-07-09T06:42:04;100887.40;;;26.42
70533;BMP180;58088;51.186;17.130;2022-07-09T06:44:31;100886.00;;;26.84
70533;BMP180;58088;51.186;17.130;2022-07-09T06:46:57;100886.00;;;27.16
70533;BMP180;58088;51.186;17.130;2022-07-09T06:49:24;100884.00;;;27.30
70533;BMP180;58088;51.186;17.130;2022-07-09T06:51:50;100884.40;;;27.50
70533;BMP180;58088;51.186;17.130;2022-07-09T06:54:16;100883.80;;;27.72
70533;BMP180;58088;51.186;17.130;2022-07-09T06:56:42;100889.20;;;28.10
70533;BMP180;58088;51.186;17.130;2022-07-09T06:59:08;100880.40;;;28.28
70533;BMP180;58088;51.186;17.130;2022-07-09T07:01:35;100884.80;;;28.46
70533;BMP180;58088;51.186;17.130;2022-07-09T07:04:01;100882.60;;;28.50
70533;BMP180;58088;51.186;17.130;2022-07-09T07:06:27;100875.20;;;28.50
70533;BMP180;58088;51.186;17.130;2022-07-09T07:08:53;100876.80;;;28.42
70533;BMP180;58088;51.186;17.130;2022-07-09T07:11:19;100880.80;;;28.04
70533;BMP180;58088;51.186;17.130;2022-07-09T07:13:45;100883.80;;;27.52
70533;BMP180;58088;51.186;17.130;2022-07-09T07:16:11;100882.40;;;26.92
70533;BMP180;58088;51.186;17.130;2022-07-09T07:18:38;100884.40;;;26.28
70533;BMP180;58088;51.186;17.130;2022-07-09T07:21:04;100874.60;;;25.96
70533;BMP180;58088;51.186;17.130;2022-07-09T07:23:30;100876.40;;;25.58
70533;BMP180;58088;51.186;17.130;2022-07-09T07:26:00;100865.40;;;25.60
70533;BMP180;58088;51.186;17.130;2022-07-09T07:28:26;100861.20;;;25.50
70533;BMP180;58088;51.186;17.130;2022-07-09T07:30:53;100872.20;;;25.58
70533;BMP180;58088;51.186;17.130;2022-07-09T07:33:20;100874.40;;;25.80
70533;BMP180;58088;51.186;17.130;2022-07-09T07:35:46;100862.80;;;25.76
70533;BMP180;58088;51.186;17.130;2022-07-09T07:38:13;100869.00;;;25.52
70533;BMP180;58088;51.186;17.130;2022-07-09T07:40:39;100870.60;;;25.40
70533;BMP180;58088;51.186;17.130;2022-07-09T07:43:05;100865.80;;;25.40
70533;BMP180;58088;51.186;17.130;2022-07-09T07:45:32;100877.20;;;25.50
70533;BMP180;58088;51.186;17.130;2022-07-09T07:47:58;100872.00;;;25.42
70533;BMP180;58088;51.186;17.130;2022-07-09T07:50:24;100873.80;;;25.70
70533;BMP180;58088;51.186;17.130;2022-07-09T07:52:50;100873.20;;;25.86
70533;BMP180;58088;51.186;17.130;2022-07-09T07:55:16;100875.40;;;26.00
70533;BMP180;58088;51.186;17.130;2022-07-09T07:57:42;100876.00;;;26.00
70533;BMP180;58088;51.186;17.130;2022-07-09T08:00:10;100869.00;;;25.96
70533;BMP180;58088;51.186;17.130;2022-07-09T08:02:39;100872.00;;;26.30
70533;BMP180;58088;51.186;17.130;2022-07-09T08:05:06;100881.60;;;26.52
70533;BMP180;58088;51.186;17.130;2022-07-09T08:07:32;100879.20;;;26.20
70533;BMP180;58088;51.186;17.130;2022-07-09T08:09:59;100871.00;;;25.88
70533;BMP180;58088;51.186;17.130;2022-07-09T08:12:25;100874.60;;;25.72
70533;BMP180;58088;51.186;17.130;2022-07-09T08:14:51;100870.80;;;25.80
70533;BMP180;58088;51.186;17.130;2022-07-09T08:17:17;100878.00;;;25.70
70533;BMP180;58088;51.186;17.130;2022-07-09T08:19:43;100878.40;;;25.50
70533;BMP180;58088;51.186;17.130;2022-07-09T08:22:09;100878.00;;;25.50
70533;BMP180;58088;51.186;17.130;2022-07-09T08:24:35;100871.80;;;25.42
70533;BMP180;58088;51.186;17.130;2022-07-09T08:27:02;100882.40;;;25.50
70533;BMP180;58088;51.186;17.130;2022-07-09T08:29:28;100878.80;;;25.10
70533;BMP180;58088;51.186;17.130;2022-07-09T08:31:54;100872.00;;;24.90
70533;BMP180;58088;51.186;17.130;2022-07-09T08:34:21;100868.60;;;25.06
70533;BMP180;58088;51.186;17.130;2022-07-09T08:36:47;100865.20;;;25.30
70533;BMP180;58088;51.186;17.130;2022-07-09T08:39:14;100866.20;;;25.40
70533;BMP180;58088;51.186;17.130;2022-07-09T08:41:42;100861.40;;;25.20
70533;BMP180;58088;51.186;17.130;2022-07-09T08:44:12;100859.60;;;25.30
70533;BMP180;58088;51.186;17.130;2022-07-09T08:46:40;100861.60;;;25.30
70533;BMP180;58088;51.186;17.130;2022-07-09T08:49:07;100861.20;;;25.40
70533;BMP180;58088;51.186;17.130;2022-07-09T08:51:35;100857.60;;;25.50
70533;BMP180;58088;51.186;17.130;2022-07-09T08:54:03;100858.40;;;25.84
70533;BMP180;58088;51.186;17.130;2022-07-09T08:56:29;100855.20;;;25.80
70533;BMP180;58088;51.186;17.130;2022-07-09T08:58:55;100856.80;;;25.74
70533;BMP180;58088;51.186;17.130;2022-07-09T09:01:21;100857.60;;;25.70
70533;BMP180;58088;51.186;17.130;2022-07-09T09:03:47;100845.20;;;25.70
70533;BMP180;58088;51.186;17.130;2022-07-09T09:06:14;100852.00;;;25.66
70533;BMP180;58088;51.186;17.130;2022-07-09T09:08:44;100841.00;;;25.74
70533;BMP180;58088;51.186;17.130;2022-07-09T09:11:20;100842.40;;;26.00
70533;BMP180;58088;51.186;17.130;2022-07-09T09:13:48;100837.20;;;26.00
70533;BMP180;58088;51.186;17.130;2022-07-09T09:16:17;100829.80;;;26.12
70533;BMP180;58088;51.186;17.130;2022-07-09T09:18:50;100836.40;;;26.10
70533;BMP180;58088;51.186;17.130;2022-07-09T09:21:21;100832.20;;;26.10
70533;BMP180;58088;51.186;17.130;2022-07-09T09:23:51;100832.80;;;26.10
70533;BMP180;58088;51.186;17.130;2022-07-09T09:26:24;100832.20;;;26.10
70533;BMP180;58088;51.186;17.130;2022-07-09T09:29:02;100826.40;;;26.00
70533;BMP180;58088;51.186;17.130;2022-07-09T09:31:38;100829.00;;;26.00
70533;BMP180;58088;51.186;17.130;2022-07-09T09:36:34;100831.20;;;25.60
70533;BMP180;58088;51.186;17.130;2022-07-09T09:39:23;100823.80;;;25.40
70533;BMP180;58088;51.186;17.130;2022-07-09T09:41:53;100816.80;;;25.30
70533;BMP180;58088;51.186;17.130;2022-07-09T09:46:54;100816.40;;;25.50
70533;BMP180;58088;51.186;17.130;2022-07-09T09:49:22;100810.60;;;25.56
70533;BMP180;58088;51.186;17.130;2022-07-09T09:54:22;100798.60;;;25.90
70533;BMP180;58088;51.186;17.130;2022-07-09T09:56:49;100814.60;;;26.00
70533;BMP180;58088;51.186;17.130;2022-07-09T09:59:16;100800.80;;;26.00
70533;BMP180;58088;51.186;17.130;2022-07-09T10:01:44;100797.20;;;26.00
70533;BMP180;58088;51.186;17.130;2022-07-09T10:04:12;100798.20;;;25.90
70533;BMP180;58088;51.186;17.130;2022-07-09T10:06:40;100797.00;;;25.80
70533;BMP180;58088;51.186;17.130;2022-07-09T10:09:10;100802.20;;;25.90
70533;BMP180;58088;51.186;17.130;2022-07-09T10:11:49;100800.20;;;26.00
70533;BMP180;58088;51.186;17.130;2022-07-09T10:16:52;100788.00;;;26.10
70533;BMP180;58088;51.186;17.130;2022-07-09T10:19:30;100782.40;;;26.10
70533;BMP180;58088;51.186;17.130;2022-07-09T10:22:00;100781.60;;;26.10
70533;BMP180;58088;51.186;17.130;2022-07-09T10:24:29;100785.20;;;26.00
70533;BMP180;58088;51.186;17.130;2022-07-09T10:27:06;100780.00;;;26.10
70533;BMP180;58088;51.186;17.130;2022-07-09T10:29:35;100780.80;;;26.20
70533;BMP180;58088;51.186;17.130;2022-07-09T10:32:02;100777.80;;;26.20
70533;BMP180;58088;51.186;17.130;2022-07-09T10:34:59;100770.60;;;26.20
70533;BMP180;58088;51.186;17.130;2022-07-09T10:37:43;100771.40;;;26.28
70533;BMP180;58088;51.186;17.130;2022-07-09T10:40:15;100760.00;;;26.30
70533;BMP180;58088;51.186;17.130;2022-07-09T10:42:44;100761.40;;;26.50
70533;BMP180;58088;51.186;17.130;2022-07-09T10:45:41;100768.40;;;26.58
70533;BMP180;58088;51.186;17.130;2022-07-09T10:48:11;100764.80;;;26.60
70533;BMP180;58088;51.186;17.130;2022-07-09T10:50:43;100769.40;;;26.50
70533;BMP180;58088;51.186;17.130;2022-07-09T10:53:11;100761.00;;;26.52
70533;BMP180;58088;51.186;17.130;2022-07-09T10:55:41;100761.20;;;26.60
70533;BMP180;58088;51.186;17.130;2022-07-09T10:58:19;100758.20;;;26.70
70533;BMP180;58088;51.186;17.130;2022-07-09T11:01:01;100764.20;;;26.80
70533;BMP180;58088;51.186;17.130;2022-07-09T11:03:31;100767.80;;;26.56
70533;BMP180;58088;51.186;17.130;2022-07-09T11:05:59;100761.20;;;26.30
70533;BMP180;58088;51.186;17.130;2022-07-09T11:08:25;100763.20;;;26.30
70533;BMP180;58088;51.186;17.130;2022-07-09T11:10:51;100762.00;;;26.36
70533;BMP180;58088;51.186;17.130;2022-07-09T11:13:24;100755.20;;;26.48
70533;BMP180;58088;51.186;17.130;2022-07-09T11:15:59;100752.80;;;26.60
70533;BMP180;58088;51.186;17.130;2022-07-09T11:18:29;100757.60;;;26.70
70533;BMP180;58088;51.186;17.130;2022-07-09T11:20:56;100748.80;;;26.80
70533;BMP180;58088;51.186;17.130;2022-07-09T11:23:22;100760.00;;;26.90
70533;BMP180;58088;51.186;17.130;2022-07-09T11:25:48;100761.60;;;26.80
70533;BMP180;58088;51.186;17.130;2022-07-09T11:28:23;100759.60;;;26.90
70533;BMP180;58088;51.186;17.130;2022-07-09T11:31:04;100767.40;;;27.00
70533;BMP180;58088;51.186;17.130;2022-07-09T11:33:32;100759.20;;;26.98
70533;BMP180;58088;51.186;17.130;2022-07-09T11:36:18;100766.40;;;26.90
70533;BMP180;58088;51.186;17.130;2022-07-09T11:38:50;100762.80;;;26.90
70533;BMP180;58088;51.186;17.130;2022-07-09T11:41:16;100757.80;;;26.90
70533;BMP180;58088;51.186;17.130;2022-07-09T11:43:50;100753.20;;;26.90
70533;BMP180;58088;51.186;17.130;2022-07-09T11:46:21;100757.80;;;27.06
70533;BMP180;58088;51.186;17.130;2022-07-09T11:48:54;100766.20;;;27.10
70533;BMP180;58088;51.186;17.130;2022-07-09T11:51:33;100760.40;;;27.20
70533;BMP180;58088;51.186;17.130;2022-07-09T11:54:01;100749.20;;;27.30
70533;BMP180;58088;51.186;17.130;2022-07-09T11:56:42;100748.20;;;27.36
70533;BMP180;58088;51.186;17.130;2022-07-09T11:59:12;100747.40;;;27.20
70533;BMP180;58088;51.186;17.130;2022-07-09T12:01:38;100746.40;;;27.20
70533;BMP180;58088;51.186;17.130;2022-07-09T12:04:05;100743.00;;;27.08
70533;BMP180;58088;51.186;17.130;2022-07-09T12:06:32;100745.80;;;27.10
70533;BMP180;58088;51.186;17.130;2022-07-09T12:09:03;100739.00;;;27.20
70533;BMP180;58088;51.186;17.130;2022-07-09T12:11:33;100744.80;;;27.30
70533;BMP180;58088;51.186;17.130;2022-07-09T12:13:59;100748.40;;;27.16
70533;BMP180;58088;51.186;17.130;2022-07-09T12:16:25;100742.80;;;27.00
70533;BMP180;58088;51.186;17.130;2022-07-09T12:18:51;100742.40;;;26.82
70533;BMP180;58088;51.186;17.130;2022-07-09T12:21:18;100738.80;;;26.70
70533;BMP180;58088;51.186;17.130;2022-07-09T12:23:47;100739.00;;;26.70
70533;BMP180;58088;51.186;17.130;2022-07-09T12:26:13;100724.60;;;26.66
70533;BMP180;58088;51.186;17.130;2022-07-09T12:28:40;100728.60;;;26.60
70533;BMP180;58088;51.186;17.130;2022-07-09T12:31:07;100736.40;;;26.56
70533;BMP180;58088;51.186;17.130;2022-07-09T12:33:33;100730.80;;;26.60
70533;BMP180;58088;51.186;17.130;2022-07-09T12:35:59;100728.80;;;26.40
70533;BMP180;58088;51.186;17.130;2022-07-09T12:38:25;100723.40;;;26.40
70533;BMP180;58088;51.186;17.130;2022-07-09T12:40:51;100721.60;;;26.40
70533;BMP180;58088;51.186;17.130;2022-07-09T12:43:18;100724.00;;;26.30
70533;BMP180;58088;51.186;17.130;2022-07-09T12:45:44;100723.20;;;26.30
70533;BMP180;58088;51.186;17.130;2022-07-09T12:48:10;100714.20;;;26.40
70533;BMP180;58088;51.186;17.130;2022-07-09T12:50:37;100715.20;;;26.44
70533;BMP180;58088;51.186;17.130;2022-07-09T12:53:03;100715.00;;;26.40
70533;BMP180;58088;51.186;17.130;2022-07-09T12:55:29;100712.60;;;26.40
70533;BMP180;58088;51.186;17.130;2022-07-09T12:57:55;100710.80;;;26.40
70533;BMP180;58088;51.186;17.130;2022-07-09T13:00:21;100708.40;;;26.40
70533;BMP180;58088;51.186;17.130;2022-07-09T13:02:48;100710.20;;;26.42
70533;BMP180;58088;51.186;17.130;2022-07-09T13:05:14;100714.40;;;26.36
70533;BMP180;58088;51.186;17.130;2022-07-09T13:07:42;100711.60;;;26.20
70533;BMP180;58088;51.186;17.130;2022-07-09T13:10:09;100715.20;;;26.20
70533;BMP180;58088;51.186;17.130;2022-07-09T13:12:35;100717.60;;;26.12
70533;BMP180;58088;51.186;17.130;2022-07-09T13:15:01;100709.20;;;26.00
70533;BMP180;58088;51.186;17.130;2022-07-09T13:17:27;100714.00;;;25.90
70533;BMP180;58088;51.186;17.130;2022-07-09T13:19:53;100716.20;;;25.70
70533;BMP180;58088;51.186;17.130;2022-07-09T13:22:19;100710.80;;;25.70
70533;BMP180;58088;51.186;17.130;2022-07-09T13:24:45;100716.00;;;25.50
70533;BMP180;58088;51.186;17.130;2022-07-09T13:27:12;100712.60;;;25.30
70533;BMP180;58088;51.186;17.130;2022-07-09T13:29:38;100712.60;;;25.20
70533;BMP180;58088;51.186;17.130;2022-07-09T13:32:06;100713.40;;;25.08
70533;BMP180;58088;51.186;17.130;2022-07-09T13:34:33;100705.40;;;24.90
70533;BMP180;58088;51.186;17.130;2022-07-09T13:36:59;100697.60;;;24.80
70533;BMP180;58088;51.186;17.130;2022-07-09T13:39:25;100696.00;;;24.80
70533;BMP180;58088;51.186;17.130;2022-07-09T13:41:51;100700.40;;;24.80
70533;BMP180;58088;51.186;17.130;2022-07-09T13:44:18;100700.40;;;24.62
70533;BMP180;58088;51.186;17.130;2022-07-09T13:46:44;100703.40;;;24.60
70533;BMP180;58088;51.186;17.130;2022-07-09T13:49:10;100701.60;;;24.46
70533;BMP180;58088;51.186;17.130;2022-07-09T13:51:36;100700.00;;;24.30
70533;BMP180;58088;51.186;17.130;2022-07-09T13:54:03;100699.80;;;24.20
70533;BMP180;58088;51.186;17.130;2022-07-09T13:56:30;100696.60;;;24.10